sensor_id;sensor_type;location;lat;lon;timestamp;P1;durP1;ratioP1;P2;durP2;ratioP2
37641;SDS011;23486;51.956;5.888;2022-07-05T00:00:03;4.18;;;0.80;;
37641;SDS011;23486;51.956;5.888;2022-07-05T00:02:30;3.63;;;0.90;;
37641;SDS011;23486;51.956;5.888;2022-07-05T00:04:56;5.82;;;1.05;;
37641;SDS011;23486;51.956;5.888;2022-07-05T00:07:40;2.80;;;0.80;;
37641;SDS011;23486;51.956;5.888;2022-07-05T00:10:06;3.00;;;0.90;;
37641;SDS011;23486;51.956;5.888;2022-07-05T00:12:32;3.08;;;0.90;;
37641;SDS011;23486;51.956;5.888;2022-07-05T00:14:59;3.42;;;0.88;;
37641;SDS011;23486;51.956;5.888;2022-07-05T00:17:26;1.88;;;0.68;;
37641;SDS011;23486;51.956;5.888;2022-07-05T00:19:52;3.88;;;0.80;;
37641;SDS011;23486;51.956;5.888;2022-07-05T00:22:19;3.30;;;1.00;;
37641;SDS011;23486;51.956;5.888;2022-07-05T00:24:46;4.22;;;0.80;;
37641;SDS011;23486;51.956;5.888;2022-07-05T00:27:36;1.85;;;0.80;;
37641;SDS011;23486;51.956;5.888;2022-07-05T00:30:05;3.00;;;0.90;;
37641;SDS011;23486;51.956;5.888;2022-07-05T00:32:33;3.45;;;0.70;;
37641;SDS011;23486;51.956;5.888;2022-07-05T00:35:01;3.70;;;1.00;;
37641;SDS011;23486;51.956;5.888;2022-07-05T00:37:29;2.55;;;1.38;;
37641;SDS011;23486;51.956;5.888;2022-07-05T00:39:57;2.33;;;1.00;;
37641;SDS011;23486;51.956;5.888;2022-07-05T00:42:28;2.05;;;0.77;;
37641;SDS011;23486;51.956;5.888;2022-07-05T00:45:08;2.53;;;0.70;;
37641;SDS011;23486;51.956;5.888;2022-07-05T00:47:34;2.40;;;0.73;;
37641;SDS011;23486;51.956;5.888;2022-07-05T00:50:21;2.75;;;0.80;;
37641;SDS011;23486;51.956;5.888;2022-07-05T00:52:47;3.00;;;0.80;;
37641;SDS011;23486;51.956;5.888;2022-07-05T00:55:19;4.90;;;0.98;;
37641;SDS011;23486;51.956;5.888;2022-07-05T00:57:45;2.33;;;0.70;;
37641;SDS011;23486;51.956;5.888;2022-07-05T01:00:13;2.25;;;0.82;;
37641;SDS011;23486;51.956;5.888;2022-07-05T01:02:39;1.58;;;0.55;;
37641;SDS011;23486;51.956;5.888;2022-07-05T01:05:07;3.80;;;1.00;;
37641;SDS011;23486;51.956;5.888;2022-07-05T01:07:34;4.13;;;0.85;;
37641;SDS011;23486;51.956;5.888;2022-07-05T01:10:21;3.75;;;1.00;;
37641;SDS011;23486;51.956;5.888;2022-07-05T01:12:46;1.77;;;0.77;;
37641;SDS011;23486;51.956;5.888;2022-07-05T01:15:12;2.05;;;0.80;;
37641;SDS011;23486;51.956;5.888;2022-07-05T01:17:51;3.50;;;0.80;;
37641;SDS011;23486;51.956;5.888;2022-07-05T01:20:17;2.65;;;0.75;;
37641;SDS011;23486;51.956;5.888;2022-07-05T01:22:50;4.75;;;0.77;;
37641;SDS011;23486;51.956;5.888;2022-07-05T01:25:21;2.63;;;0.70;;
37641;SDS011;23486;51.956;5.888;2022-07-05T01:27:54;3.22;;;0.68;;
37641;SDS011;23486;51.956;5.888;2022-07-05T01:30:26;4.97;;;1.10;;
37641;SDS011;23486;51.956;5.888;2022-07-05T01:33:17;2.72;;;0.80;;
37641;SDS011;23486;51.956;5.888;2022-07-05T01:35:51;2.03;;;0.65;;
37641;SDS011;23486;51.956;5.888;2022-07-05T01:38:27;1.65;;;0.65;;
37641;SDS011;23486;51.956;5.888;2022-07-05T01:40:56;2.38;;;0.80;;
37641;SDS011;23486;51.956;5.888;2022-07-05T01:43:25;2.00;;;0.80;;
37641;SDS011;23486;51.956;5.888;2022-07-05T01:45:50;2.85;;;0.70;;
37641;SDS011;23486;51.956;5.888;2022-07-05T01:48:18;2.08;;;0.55;;
37641;SDS011;23486;51.956;5.888;2022-07-05T01:56:48;4.22;;;0.70;;
37641;SDS011;23486;51.956;5.888;2022-07-05T01:59:28;2.50;;;0.68;;
37641;SDS011;23486;51.956;5.888;2022-07-05T02:01:59;2.30;;;0.85;;
37641;SDS011;23486;51.956;5.888;2022-07-05T02:04:34;2.15;;;0.63;;
37641;SDS011;23486;51.956;5.888;2022-07-05T02:10:09;3.20;;;0.65;;
37641;SDS011;23486;51.956;5.888;2022-07-05T02:12:36;3.08;;;0.80;;
37641;SDS011;23486;51.956;5.888;2022-07-05T02:15:29;1.90;;;0.60;;
37641;SDS011;23486;51.956;5.888;2022-07-05T02:18:03;1.63;;;0.50;;
37641;SDS011;23486;51.956;5.888;2022-07-05T02:20:45;2.35;;;0.75;;
37641;SDS011;23486;51.956;5.888;2022-07-05T02:23:11;2.55;;;0.75;;
37641;SDS011;23486;51.956;5.888;2022-07-05T02:25:44;2.65;;;0.98;;
37641;SDS011;23486;51.956;5.888;2022-07-05T02:28:35;3.35;;;0.90;;
37641;SDS011;23486;51.956;5.888;2022-07-05T02:31:04;1.63;;;0.75;;
37641;SDS011;23486;51.956;5.888;2022-07-05T02:33:31;2.53;;;0.70;;
37641;SDS011;23486;51.956;5.888;2022-07-05T02:45:37;3.38;;;1.20;;
37641;SDS011;23486;51.956;5.888;2022-07-05T02:48:08;2.75;;;1.30;;
37641;SDS011;23486;51.956;5.888;2022-07-05T02:56:43;3.72;;;1.23;;
37641;SDS011;23486;51.956;5.888;2022-07-05T02:59:16;2.17;;;1.17;;
37641;SDS011;23486;51.956;5.888;2022-07-05T03:01:44;3.28;;;1.48;;
37641;SDS011;23486;51.956;5.888;2022-07-05T03:10:51;2.78;;;1.13;;
37641;SDS011;23486;51.956;5.888;2022-07-05T03:13:24;4.18;;;1.80;;
37641;SDS011;23486;51.956;5.888;2022-07-05T03:15:52;3.63;;;1.40;;
37641;SDS011;23486;51.956;5.888;2022-07-05T03:18:27;3.92;;;1.58;;
37641;SDS011;23486;51.956;5.888;2022-07-05T03:20:55;5.40;;;1.92;;
37641;SDS011;23486;51.956;5.888;2022-07-05T03:23:26;5.72;;;1.70;;
37641;SDS011;23486;51.956;5.888;2022-07-05T03:29:04;3.35;;;1.50;;
37641;SDS011;23486;51.956;5.888;2022-07-05T03:32:07;2.70;;;1.15;;
37641;SDS011;23486;51.956;5.888;2022-07-05T03:34:34;5.57;;;1.50;;
37641;SDS011;23486;51.956;5.888;2022-07-05T03:45:34;3.13;;;0.95;;
37641;SDS011;23486;51.956;5.888;2022-07-05T03:51:26;2.75;;;1.45;;
37641;SDS011;23486;51.956;5.888;2022-07-05T03:53:53;4.07;;;1.73;;
37641;SDS011;23486;51.956;5.888;2022-07-05T03:56:44;3.00;;;1.10;;
37641;SDS011;23486;51.956;5.888;2022-07-05T03:59:10;2.67;;;1.05;;
37641;SDS011;23486;51.956;5.888;2022-07-05T04:01:36;6.40;;;1.88;;
37641;SDS011;23486;51.956;5.888;2022-07-05T04:07:10;4.53;;;1.83;;
37641;SDS011;23486;51.956;5.888;2022-07-05T04:12:30;5.03;;;1.95;;
37641;SDS011;23486;51.956;5.888;2022-07-05T04:17:58;3.95;;;2.03;;
37641;SDS011;23486;51.956;5.888;2022-07-05T04:20:26;5.57;;;2.47;;
37641;SDS011;23486;51.956;5.888;2022-07-05T04:22:55;4.75;;;2.55;;
37641;SDS011;23486;51.956;5.888;2022-07-05T04:25:21;6.20;;;2.95;;
37641;SDS011;23486;51.956;5.888;2022-07-05T04:27:50;5.80;;;3.35;;
37641;SDS011;23486;51.956;5.888;2022-07-05T04:30:41;4.28;;;2.70;;
37641;SDS011;23486;51.956;5.888;2022-07-05T04:33:25;3.92;;;2.45;;
37641;SDS011;23486;51.956;5.888;2022-07-05T04:35:50;6.22;;;2.50;;
37641;SDS011;23486;51.956;5.888;2022-07-05T04:41:25;8.43;;;3.25;;
37641;SDS011;23486;51.956;5.888;2022-07-05T04:46:38;4.95;;;3.78;;
37641;SDS011;23486;51.956;5.888;2022-07-05T04:52:28;4.28;;;3.22;;
37641;SDS011;23486;51.956;5.888;2022-07-05T04:54:54;7.03;;;4.75;;
37641;SDS011;23486;51.956;5.888;2022-07-05T05:03:16;5.90;;;3.72;;
37641;SDS011;23486;51.956;5.888;2022-07-05T05:05:45;6.88;;;5.00;;
37641;SDS011;23486;51.956;5.888;2022-07-05T05:11:28;7.40;;;3.70;;
37641;SDS011;23486;51.956;5.888;2022-07-05T05:14:00;7.55;;;4.82;;
37641;SDS011;23486;51.956;5.888;2022-07-05T05:16:31;7.45;;;5.10;;
37641;SDS011;23486;51.956;5.888;2022-07-05T05:19:03;7.82;;;4.55;;
37641;SDS011;23486;51.956;5.888;2022-07-05T05:21:31;6.43;;;4.80;;
37641;SDS011;23486;51.956;5.888;2022-07-05T05:27:30;7.20;;;5.75;;
37641;SDS011;23486;51.956;5.888;2022-07-05T05:30:05;8.10;;;5.40;;
37641;SDS011;23486;51.956;5.888;2022-07-05T05:32:46;8.00;;;5.97;;
37641;SDS011;23486;51.956;5.888;2022-07-05T05:35:12;8.23;;;5.85;;
37641;SDS011;23486;51.956;5.888;2022-07-05T05:40:59;8.23;;;5.50;;
37641;SDS011;23486;51.956;5.888;2022-07-05T05:43:46;10.38;;;6.47;;
37641;SDS011;23486;51.956;5.888;2022-07-05T05:46:11;8.90;;;6.03;;
37641;SDS011;23486;51.956;5.888;2022-07-05T05:48:55;8.30;;;6.60;;
37641;SDS011;23486;51.956;5.888;2022-07-05T05:54:30;8.15;;;5.07;;
37641;SDS011;23486;51.956;5.888;2022-07-05T05:56:59;7.88;;;5.88;;
37641;SDS011;23486;51.956;5.888;2022-07-05T05:59:24;10.13;;;6.00;;
37641;SDS011;23486;51.956;5.888;2022-07-05T06:01:50;9.80;;;6.03;;
37641;SDS011;23486;51.956;5.888;2022-07-05T06:04:34;7.95;;;5.95;;
37641;SDS011;23486;51.956;5.888;2022-07-05T06:07:14;7.03;;;4.97;;
37641;SDS011;23486;51.956;5.888;2022-07-05T06:09:52;8.90;;;6.07;;
37641;SDS011;23486;51.956;5.888;2022-07-05T06:12:19;6.03;;;5.05;;
37641;SDS011;23486;51.956;5.888;2022-07-05T06:14:56;7.47;;;5.50;;
37641;SDS011;23486;51.956;5.888;2022-07-05T06:17:37;6.70;;;5.00;;
37641;SDS011;23486;51.956;5.888;2022-07-05T06:20:10;5.72;;;4.15;;
37641;SDS011;23486;51.956;5.888;2022-07-05T06:22:37;5.93;;;3.40;;
37641;SDS011;23486;51.956;5.888;2022-07-05T06:25:03;9.48;;;4.10;;
37641;SDS011;23486;51.956;5.888;2022-07-05T06:27:30;5.65;;;3.65;;
37641;SDS011;23486;51.956;5.888;2022-07-05T06:29:55;5.93;;;3.40;;
37641;SDS011;23486;51.956;5.888;2022-07-05T06:32:23;5.97;;;3.90;;
37641;SDS011;23486;51.956;5.888;2022-07-05T06:34:49;5.85;;;3.47;;
37641;SDS011;23486;51.956;5.888;2022-07-05T06:37:14;5.95;;;3.72;;
37641;SDS011;23486;51.956;5.888;2022-07-05T06:39:40;7.07;;;4.00;;
37641;SDS011;23486;51.956;5.888;2022-07-05T06:46:01;7.50;;;3.73;;
37641;SDS011;23486;51.956;5.888;2022-07-05T06:48:29;7.47;;;4.40;;
37641;SDS011;23486;51.956;5.888;2022-07-05T06:50:55;9.10;;;5.22;;
37641;SDS011;23486;51.956;5.888;2022-07-05T06:53:24;6.15;;;5.18;;
37641;SDS011;23486;51.956;5.888;2022-07-05T06:55:52;7.35;;;5.35;;
37641;SDS011;23486;51.956;5.888;2022-07-05T07:05:14;6.93;;;4.15;;
37641;SDS011;23486;51.956;5.888;2022-07-05T07:07:46;6.53;;;4.15;;
37641;SDS011;23486;51.956;5.888;2022-07-05T07:10:32;8.13;;;4.55;;
37641;SDS011;23486;51.956;5.888;2022-07-05T07:13:04;5.55;;;3.53;;
37641;SDS011;23486;51.956;5.888;2022-07-05T07:18:36;5.47;;;3.70;;
37641;SDS011;23486;51.956;5.888;2022-07-05T07:21:11;6.40;;;3.72;;
37641;SDS011;23486;51.956;5.888;2022-07-05T07:23:36;4.07;;;2.88;;
37641;SDS011;23486;51.956;5.888;2022-07-05T07:26:02;4.93;;;2.72;;
37641;SDS011;23486;51.956;5.888;2022-07-05T07:28:28;3.70;;;1.77;;
37641;SDS011;23486;51.956;5.888;2022-07-05T07:31:06;2.92;;;1.30;;
37641;SDS011;23486;51.956;5.888;2022-07-05T07:33:33;4.63;;;1.85;;
37641;SDS011;23486;51.956;5.888;2022-07-05T07:36:37;3.95;;;1.60;;
37641;SDS011;23486;51.956;5.888;2022-07-05T07:39:36;5.72;;;3.17;;
37641;SDS011;23486;51.956;5.888;2022-07-05T07:42:35;7.32;;;3.15;;
37641;SDS011;23486;51.956;5.888;2022-07-05T07:45:11;4.93;;;3.05;;
37641;SDS011;23486;51.956;5.888;2022-07-05T07:47:50;7.43;;;3.00;;
37641;SDS011;23486;51.956;5.888;2022-07-05T07:50:21;7.85;;;4.05;;
37641;SDS011;23486;51.956;5.888;2022-07-05T07:52:48;5.05;;;2.92;;
37641;SDS011;23486;51.956;5.888;2022-07-05T07:55:23;5.45;;;2.65;;
37641;SDS011;23486;51.956;5.888;2022-07-05T07:57:49;3.97;;;1.98;;
37641;SDS011;23486;51.956;5.888;2022-07-05T08:00:14;6.15;;;3.90;;
37641;SDS011;23486;51.956;5.888;2022-07-05T08:03:09;4.88;;;2.08;;
37641;SDS011;23486;51.956;5.888;2022-07-05T08:05:36;3.67;;;1.75;;
37641;SDS011;23486;51.956;5.888;2022-07-05T08:08:02;3.33;;;1.92;;
37641;SDS011;23486;51.956;5.888;2022-07-05T08:10:28;4.22;;;2.72;;
37641;SDS011;23486;51.956;5.888;2022-07-05T08:12:53;3.67;;;1.60;;
37641;SDS011;23486;51.956;5.888;2022-07-05T08:15:19;4.18;;;1.65;;
37641;SDS011;23486;51.956;5.888;2022-07-05T08:17:44;3.95;;;2.00;;
37641;SDS011;23486;51.956;5.888;2022-07-05T08:20:30;4.05;;;2.05;;
37641;SDS011;23486;51.956;5.888;2022-07-05T08:23:14;5.50;;;2.45;;
37641;SDS011;23486;51.956;5.888;2022-07-05T08:25:39;5.57;;;2.22;;
37641;SDS011;23486;51.956;5.888;2022-07-05T08:28:05;5.32;;;2.35;;
37641;SDS011;23486;51.956;5.888;2022-07-05T08:30:30;4.15;;;1.98;;
37641;SDS011;23486;51.956;5.888;2022-07-05T08:32:56;4.53;;;2.78;;
37641;SDS011;23486;51.956;5.888;2022-07-05T08:35:22;3.10;;;1.63;;
37641;SDS011;23486;51.956;5.888;2022-07-05T08:37:47;5.50;;;1.65;;
37641;SDS011;23486;51.956;5.888;2022-07-05T08:40:13;4.22;;;1.67;;
37641;SDS011;23486;51.956;5.888;2022-07-05T08:42:55;4.13;;;2.22;;
37641;SDS011;23486;51.956;5.888;2022-07-05T08:45:29;4.70;;;2.80;;
37641;SDS011;23486;51.956;5.888;2022-07-05T08:48:11;6.10;;;2.35;;
37641;SDS011;23486;51.956;5.888;2022-07-05T08:51:00;5.07;;;1.92;;
37641;SDS011;23486;51.956;5.888;2022-07-05T08:53:27;5.90;;;1.40;;
37641;SDS011;23486;51.956;5.888;2022-07-05T08:55:59;2.72;;;1.50;;
37641;SDS011;23486;51.956;5.888;2022-07-05T08:58:37;4.07;;;1.83;;
37641;SDS011;23486;51.956;5.888;2022-07-05T09:01:03;7.25;;;1.73;;
37641;SDS011;23486;51.956;5.888;2022-07-05T09:04:00;4.78;;;1.58;;
37641;SDS011;23486;51.956;5.888;2022-07-05T09:06:33;3.55;;;1.35;;
37641;SDS011;23486;51.956;5.888;2022-07-05T09:09:11;3.40;;;1.77;;
37641;SDS011;23486;51.956;5.888;2022-07-05T09:11:52;2.40;;;1.27;;
37641;SDS011;23486;51.956;5.888;2022-07-05T09:14:24;8.02;;;2.35;;
37641;SDS011;23486;51.956;5.888;2022-07-05T09:16:50;2.95;;;1.70;;
37641;SDS011;23486;51.956;5.888;2022-07-05T09:19:17;3.60;;;1.40;;
37641;SDS011;23486;51.956;5.888;2022-07-05T09:24:58;3.05;;;0.98;;
37641;SDS011;23486;51.956;5.888;2022-07-05T09:27:51;3.05;;;1.13;;
37641;SDS011;23486;51.956;5.888;2022-07-05T09:30:29;3.95;;;1.05;;
37641;SDS011;23486;51.956;5.888;2022-07-05T09:33:34;5.75;;;0.80;;
37641;SDS011;23486;51.956;5.888;2022-07-05T09:36:46;2.60;;;0.77;;
37641;SDS011;23486;51.956;5.888;2022-07-05T09:47:30;3.25;;;1.15;;
37641;SDS011;23486;51.956;5.888;2022-07-05T09:49:57;2.92;;;1.00;;
37641;SDS011;23486;51.956;5.888;2022-07-05T09:52:34;5.97;;;2.25;;
37641;SDS011;23486;51.956;5.888;2022-07-05T09:57:31;4.90;;;2.17;;
37641;SDS011;23486;51.956;5.888;2022-07-05T09:59:59;5.45;;;2.65;;
37641;SDS011;23486;51.956;5.888;2022-07-05T10:02:36;4.25;;;1.95;;
37641;SDS011;23486;51.956;5.888;2022-07-05T10:05:22;4.60;;;2.72;;
37641;SDS011;23486;51.956;5.888;2022-07-05T10:07:53;4.85;;;2.15;;
37641;SDS011;23486;51.956;5.888;2022-07-05T10:10:35;6.88;;;2.58;;
37641;SDS011;23486;51.956;5.888;2022-07-05T10:13:10;4.40;;;2.17;;
37641;SDS011;23486;51.956;5.888;2022-07-05T10:15:39;4.80;;;1.55;;
37641;SDS011;23486;51.956;5.888;2022-07-05T10:18:11;6.00;;;2.15;;
37641;SDS011;23486;51.956;5.888;2022-07-05T10:23:17;2.53;;;0.82;;
37641;SDS011;23486;51.956;5.888;2022-07-05T10:25:52;3.65;;;1.23;;
37641;SDS011;23486;51.956;5.888;2022-07-05T10:28:19;5.63;;;1.73;;
37641;SDS011;23486;51.956;5.888;2022-07-05T10:35:07;3.92;;;1.10;;
37641;SDS011;23486;51.956;5.888;2022-07-05T10:37:36;3.00;;;1.27;;
37641;SDS011;23486;51.956;5.888;2022-07-05T10:40:05;3.35;;;1.33;;
37641;SDS011;23486;51.956;5.888;2022-07-05T10:43:03;3.05;;;1.20;;
37641;SDS011;23486;51.956;5.888;2022-07-05T10:48:34;3.15;;;1.10;;
37641;SDS011;23486;51.956;5.888;2022-07-05T10:51:19;2.30;;;1.05;;
37641;SDS011;23486;51.956;5.888;2022-07-05T10:54:04;3.67;;;1.25;;
37641;SDS011;23486;51.956;5.888;2022-07-05T10:56:30;3.72;;;1.40;;
37641;SDS011;23486;51.956;5.888;2022-07-05T11:02:11;2.63;;;0.80;;
37641;SDS011;23486;51.956;5.888;2022-07-05T11:04:43;3.65;;;1.15;;
37641;SDS011;23486;51.956;5.888;2022-07-05T11:07:09;2.42;;;0.65;;
37641;SDS011;23486;51.956;5.888;2022-07-05T11:09:35;5.90;;;0.80;;
37641;SDS011;23486;51.956;5.888;2022-07-05T11:12:02;1.85;;;0.50;;
37641;SDS011;23486;51.956;5.888;2022-07-05T11:14:30;2.85;;;0.80;;
37641;SDS011;23486;51.956;5.888;2022-07-05T11:17:11;3.97;;;1.20;;
37641;SDS011;23486;51.956;5.888;2022-07-05T11:22:27;3.75;;;1.00;;
37641;SDS011;23486;51.956;5.888;2022-07-05T11:24:54;4.25;;;1.10;;
37641;SDS011;23486;51.956;5.888;2022-07-05T11:27:21;4.57;;;1.65;;
37641;SDS011;23486;51.956;5.888;2022-07-05T11:29:48;3.67;;;1.00;;
37641;SDS011;23486;51.956;5.888;2022-07-05T11:32:21;2.08;;;0.70;;
37641;SDS011;23486;51.956;5.888;2022-07-05T11:34:54;2.88;;;0.95;;
37641;SDS011;23486;51.956;5.888;2022-07-05T11:37:23;5.47;;;1.00;;
37641;SDS011;23486;51.956;5.888;2022-07-05T11:42:37;3.38;;;0.40;;
37641;SDS011;23486;51.956;5.888;2022-07-05T11:45:10;1.20;;;0.50;;
37641;SDS011;23486;51.956;5.888;2022-07-05T11:47:37;1.95;;;0.38;;
37641;SDS011;23486;51.956;5.888;2022-07-05T11:50:03;2.70;;;0.50;;
37641;SDS011;23486;51.956;5.888;2022-07-05T11:52:30;1.17;;;0.35;;
37641;SDS011;23486;51.956;5.888;2022-07-05T11:54:57;1.90;;;0.30;;
37641;SDS011;23486;51.956;5.888;2022-07-05T11:57:27;3.28;;;0.60;;
37641;SDS011;23486;51.956;5.888;2022-07-05T11:59:53;1.13;;;0.52;;
37641;SDS011;23486;51.956;5.888;2022-07-05T12:02:21;2.78;;;0.30;;
37641;SDS011;23486;51.956;5.888;2022-07-05T12:04:50;1.70;;;0.30;;
37641;SDS011;23486;51.956;5.888;2022-07-05T12:07:27;1.02;;;0.20;;
37641;SDS011;23486;51.956;5.888;2022-07-05T12:09:57;1.42;;;0.30;;
37641;SDS011;23486;51.956;5.888;2022-07-05T12:12:52;2.13;;;0.28;;
37641;SDS011;23486;51.956;5.888;2022-07-05T12:15:18;1.25;;;0.30;;
37641;SDS011;23486;51.956;5.888;2022-07-05T12:17:49;1.67;;;0.20;;
37641;SDS011;23486;51.956;5.888;2022-07-05T12:20:22;2.55;;;0.20;;
37641;SDS011;23486;51.956;5.888;2022-07-05T12:25:25;1.75;;;0.45;;
37641;SDS011;23486;51.956;5.888;2022-07-05T12:27:55;4.38;;;0.52;;
37641;SDS011;23486;51.956;5.888;2022-07-05T12:30:23;2.53;;;0.30;;
37641;SDS011;23486;51.956;5.888;2022-07-05T12:33:07;2.08;;;0.30;;
37641;SDS011;23486;51.956;5.888;2022-07-05T12:35:36;1.63;;;0.30;;
37641;SDS011;23486;51.956;5.888;2022-07-05T12:38:12;1.30;;;0.40;;
37641;SDS011;23486;51.956;5.888;2022-07-05T12:40:44;1.27;;;0.20;;
37641;SDS011;23486;51.956;5.888;2022-07-05T12:43:17;2.33;;;0.20;;
37641;SDS011;23486;51.956;5.888;2022-07-05T12:45:58;1.95;;;0.32;;
37641;SDS011;23486;51.956;5.888;2022-07-05T12:50:58;1.60;;;0.20;;
37641;SDS011;23486;51.956;5.888;2022-07-05T12:53:24;2.35;;;0.40;;
37641;SDS011;23486;51.956;5.888;2022-07-05T12:56:10;1.58;;;0.40;;
37641;SDS011;23486;51.956;5.888;2022-07-05T12:58:55;1.92;;;0.30;;
37641;SDS011;23486;51.956;5.888;2022-07-05T13:01:23;3.05;;;0.30;;
37641;SDS011;23486;51.956;5.888;2022-07-05T13:06:46;3.17;;;0.40;;
37641;SDS011;23486;51.956;5.888;2022-07-05T13:14:49;1.45;;;0.30;;
37641;SDS011;23486;51.956;5.888;2022-07-05T13:17:26;3.40;;;0.28;;
37641;SDS011;23486;51.956;5.888;2022-07-05T13:19:59;3.67;;;0.30;;
37641;SDS011;23486;51.956;5.888;2022-07-05T13:22:37;1.80;;;0.30;;
37641;SDS011;23486;51.956;5.888;2022-07-05T13:25:03;4.32;;;0.30;;
37641;SDS011;23486;51.956;5.888;2022-07-05T13:27:29;3.40;;;0.40;;
37641;SDS011;23486;51.956;5.888;2022-07-05T13:29:56;3.92;;;0.55;;
37641;SDS011;23486;51.956;5.888;2022-07-05T13:32:22;2.28;;;0.30;;
37641;SDS011;23486;51.956;5.888;2022-07-05T13:34:48;1.67;;;0.30;;
37641;SDS011;23486;51.956;5.888;2022-07-05T13:37:14;1.92;;;0.40;;
37641;SDS011;23486;51.956;5.888;2022-07-05T13:39:40;1.45;;;0.20;;
37641;SDS011;23486;51.956;5.888;2022-07-05T13:42:07;2.65;;;0.30;;
37641;SDS011;23486;51.956;5.888;2022-07-05T13:44:32;2.58;;;0.30;;
37641;SDS011;23486;51.956;5.888;2022-07-05T13:46:58;4.57;;;0.70;;
37641;SDS011;23486;51.956;5.888;2022-07-05T13:49:24;2.17;;;0.30;;
37641;SDS011;23486;51.956;5.888;2022-07-05T13:51:49;4.70;;;0.30;;
37641;SDS011;23486;51.956;5.888;2022-07-05T13:54:36;3.25;;;0.35;;
37641;SDS011;23486;51.956;5.888;2022-07-05T13:57:05;3.38;;;0.30;;
37641;SDS011;23486;51.956;5.888;2022-07-05T13:59:31;4.32;;;0.35;;
37641;SDS011;23486;51.956;5.888;2022-07-05T14:02:02;2.05;;;0.30;;
37641;SDS011;23486;51.956;5.888;2022-07-05T14:04:46;2.33;;;0.25;;
37641;SDS011;23486;51.956;5.888;2022-07-05T14:07:25;1.05;;;0.20;;
37641;SDS011;23486;51.956;5.888;2022-07-05T14:09:54;2.55;;;0.30;;
37641;SDS011;23486;51.956;5.888;2022-07-05T14:12:19;2.13;;;0.20;;
37641;SDS011;23486;51.956;5.888;2022-07-05T14:14:56;2.10;;;0.30;;
37641;SDS011;23486;51.956;5.888;2022-07-05T14:17:22;1.60;;;0.20;;
37641;SDS011;23486;51.956;5.888;2022-07-05T14:19:48;2.30;;;0.30;;
37641;SDS011;23486;51.956;5.888;2022-07-05T14:22:13;2.17;;;0.22;;
37641;SDS011;23486;51.956;5.888;2022-07-05T14:24:51;1.02;;;0.20;;
37641;SDS011;23486;51.956;5.888;2022-07-05T14:27:29;2.40;;;0.30;;
37641;SDS011;23486;51.956;5.888;2022-07-05T14:32:49;2.95;;;0.35;;
37641;SDS011;23486;51.956;5.888;2022-07-05T14:35:21;0.93;;;0.13;;
37641;SDS011;23486;51.956;5.888;2022-07-05T14:37:46;2.75;;;0.30;;
37641;SDS011;23486;51.956;5.888;2022-07-05T14:40:12;2.50;;;0.30;;
37641;SDS011;23486;51.956;5.888;2022-07-05T14:45:37;1.70;;;0.20;;
37641;SDS011;23486;51.956;5.888;2022-07-05T14:48:11;0.80;;;0.20;;
37641;SDS011;23486;51.956;5.888;2022-07-05T14:50:37;2.58;;;0.20;;
37641;SDS011;23486;51.956;5.888;2022-07-05T14:53:09;1.02;;;0.20;;
37641;SDS011;23486;51.956;5.888;2022-07-05T14:55:35;1.30;;;0.20;;
37641;SDS011;23486;51.956;5.888;2022-07-05T14:58:01;0.90;;;0.20;;
37641;SDS011;23486;51.956;5.888;2022-07-05T15:03:46;1.45;;;0.13;;
37641;SDS011;23486;51.956;5.888;2022-07-05T15:06:11;2.70;;;0.20;;
37641;SDS011;23486;51.956;5.888;2022-07-05T15:08:37;2.97;;;0.20;;
37641;SDS011;23486;51.956;5.888;2022-07-05T15:11:03;2.28;;;0.40;;
37641;SDS011;23486;51.956;5.888;2022-07-05T15:13:29;2.67;;;0.20;;
37641;SDS011;23486;51.956;5.888;2022-07-05T15:15:56;1.38;;;0.17;;
37641;SDS011;23486;51.956;5.888;2022-07-05T15:18:22;1.15;;;0.10;;
37641;SDS011;23486;51.956;5.888;2022-07-05T15:20:49;1.85;;;0.30;;
37641;SDS011;23486;51.956;5.888;2022-07-05T15:23:16;1.60;;;0.20;;
37641;SDS011;23486;51.956;5.888;2022-07-05T15:25:42;0.85;;;0.20;;
37641;SDS011;23486;51.956;5.888;2022-07-05T15:28:17;1.77;;;0.20;;
37641;SDS011;23486;51.956;5.888;2022-07-05T15:31:02;0.70;;;0.10;;
37641;SDS011;23486;51.956;5.888;2022-07-05T15:33:43;0.85;;;0.20;;
37641;SDS011;23486;51.956;5.888;2022-07-05T15:36:20;1.58;;;0.20;;
37641;SDS011;23486;51.956;5.888;2022-07-05T15:39:05;1.40;;;0.10;;
37641;SDS011;23486;51.956;5.888;2022-07-05T15:41:32;1.55;;;0.20;;
37641;SDS011;23486;51.956;5.888;2022-07-05T15:43:58;2.13;;;0.20;;
37641;SDS011;23486;51.956;5.888;2022-07-05T15:46:42;2.00;;;0.25;;
37641;SDS011;23486;51.956;5.888;2022-07-05T15:49:26;1.20;;;0.20;;
37641;SDS011;23486;51.956;5.888;2022-07-05T15:51:54;0.82;;;0.10;;
37641;SDS011;23486;51.956;5.888;2022-07-05T15:54:22;1.33;;;0.20;;
37641;SDS011;23486;51.956;5.888;2022-07-05T15:56:54;0.90;;;0.20;;
37641;SDS011;23486;51.956;5.888;2022-07-05T15:59:21;4.30;;;0.30;;
37641;SDS011;23486;51.956;5.888;2022-07-05T16:01:47;0.60;;;0.20;;
37641;SDS011;23486;51.956;5.888;2022-07-05T16:04:13;2.30;;;0.38;;
37641;SDS011;23486;51.956;5.888;2022-07-05T16:06:39;1.10;;;0.20;;
37641;SDS011;23486;51.956;5.888;2022-07-05T16:09:04;1.58;;;0.30;;
37641;SDS011;23486;51.956;5.888;2022-07-05T16:11:31;2.13;;;0.20;;
37641;SDS011;23486;51.956;5.888;2022-07-05T16:13:57;1.30;;;0.20;;
37641;SDS011;23486;51.956;5.888;2022-07-05T16:16:22;1.33;;;0.20;;
37641;SDS011;23486;51.956;5.888;2022-07-05T16:18:51;0.80;;;0.20;;
37641;SDS011;23486;51.956;5.888;2022-07-05T16:21:17;1.08;;;0.13;;
37641;SDS011;23486;51.956;5.888;2022-07-05T16:23:45;1.58;;;0.20;;
37641;SDS011;23486;51.956;5.888;2022-07-05T16:26:12;1.13;;;0.20;;
37641;SDS011;23486;51.956;5.888;2022-07-05T16:28:38;1.38;;;0.20;;
37641;SDS011;23486;51.956;5.888;2022-07-05T16:31:05;1.60;;;0.20;;
37641;SDS011;23486;51.956;5.888;2022-07-05T16:33:48;1.25;;;0.20;;
37641;SDS011;23486;51.956;5.888;2022-07-05T16:36:19;1.90;;;0.20;;
37641;SDS011;23486;51.956;5.888;2022-07-05T16:38:48;1.45;;;0.20;;
37641;SDS011;23486;51.956;5.888;2022-07-05T16:41:15;1.48;;;0.20;;
37641;SDS011;23486;51.956;5.888;2022-07-05T16:43:42;1.75;;;0.20;;
37641;SDS011;23486;51.956;5.888;2022-07-05T16:46:09;1.90;;;0.20;;
37641;SDS011;23486;51.956;5.888;2022-07-05T16:48:39;1.00;;;0.20;;
37641;SDS011;23486;51.956;5.888;2022-07-05T16:51:08;1.38;;;0.20;;
37641;SDS011;23486;51.956;5.888;2022-07-05T16:53:39;3.42;;;0.20;;
37641;SDS011;23486;51.956;5.888;2022-07-05T16:56:06;2.05;;;0.30;;
37641;SDS011;23486;51.956;5.888;2022-07-05T17:01:03;2.40;;;0.30;;
37641;SDS011;23486;51.956;5.888;2022-07-05T17:03:30;2.75;;;0.40;;
37641;SDS011;23486;51.956;5.888;2022-07-05T17:05:56;4.35;;;0.40;;
37641;SDS011;23486;51.956;5.888;2022-07-05T17:08:22;2.13;;;0.30;;
37641;SDS011;23486;51.956;5.888;2022-07-05T17:10:50;2.83;;;0.32;;
37641;SDS011;23486;51.956;5.888;2022-07-05T17:13:15;1.98;;;0.30;;
37641;SDS011;23486;51.956;5.888;2022-07-05T17:15:53;2.08;;;0.40;;
37641;SDS011;23486;51.956;5.888;2022-07-05T17:18:19;3.15;;;0.40;;
37641;SDS011;23486;51.956;5.888;2022-07-05T17:20:45;3.47;;;0.40;;
37641;SDS011;23486;51.956;5.888;2022-07-05T17:23:10;4.18;;;0.63;;
37641;SDS011;23486;51.956;5.888;2022-07-05T17:25:36;2.55;;;0.52;;
37641;SDS011;23486;51.956;5.888;2022-07-05T17:28:02;5.72;;;0.30;;
37641;SDS011;23486;51.956;5.888;2022-07-05T17:30:27;3.00;;;0.38;;
37641;SDS011;23486;51.956;5.888;2022-07-05T17:32:53;2.88;;;0.40;;
37641;SDS011;23486;51.956;5.888;2022-07-05T17:35:22;3.95;;;0.55;;
37641;SDS011;23486;51.956;5.888;2022-07-05T17:37:47;2.70;;;0.38;;
37641;SDS011;23486;51.956;5.888;2022-07-05T17:40:14;3.47;;;0.32;;
37641;SDS011;23486;51.956;5.888;2022-07-05T17:42:57;3.85;;;0.40;;
37641;SDS011;23486;51.956;5.888;2022-07-05T17:45:23;3.92;;;0.30;;
37641;SDS011;23486;51.956;5.888;2022-07-05T17:47:51;4.10;;;0.30;;